Time;durP1;ratioP1;P1;durP2;ratioP2;P2;SDS_P1;SDS_P2;PMS_P1;PMS_P2;Temp;Humidity;BMP_temperature;BMP_pressure;BME280_temperature;BME280_humidity;BME280_pressure;Samples;Min_cycle;Max_cycle;Signal;HPM_P1;HPM_P2
2023/07/12 00:00:00;;;;;;;3.13;2.50;;;;;;;;;;5071813;28;20884;-80
2023/07/12 00:02:26;;;;;;;3.13;2.60;;;;;;;;;;5071927;28;20393;-80
2023/07/12 00:04:52;;;;;;;4.60;2.83;;;;;;;;;;5071777;28;20451;-80
2023/07/12 00:07:21;;;;;;;5.40;2.83;;;;;;;;;;5071773;28;20381;-79
2023/07/12 00:09:47;;;;;;;5.10;2.97;;;;;;;;;;5071702;28;20383;-79
2023/07/12 00:12:13;;;;;;;3.90;2.70;;;;;;;;;;5071740;28;20412;-79
2023/07/12 00:14:40;;;;;;;5.40;2.60;;;;;;;;;;5071531;28;20900;-79
2023/07/12 00:17:06;;;;;;;4.13;2.65;;;;;;;;;;5071770;28;20440;-80
2023/07/12 00:19:32;;;;;;;3.67;2.65;;;;;;;;;;5074901;28;20399;-80
2023/07/12 00:21:58;;;;;;;4.55;2.88;;;;;;;;;;5075822;28;20375;-80
2023/07/12 00:24:24;;;;;;;3.97;2.67;;;;;;;;;;5075602;28;20407;-79
2023/07/12 00:26:50;;;;;;;3.85;2.88;;;;;;;;;;5074425;28;20410;-80
2023/07/12 00:29:16;;;;;;;3.87;2.60;;;;;;;;;;5075427;28;20465;-80
2023/07/12 00:31:42;;;;;;;3.60;2.80;;;;;;;;;;5075457;28;20884;-79
2023/07/12 00:34:08;;;;;;;4.53;3.27;;;;;;;;;;5075382;28;20441;-79
2023/07/12 00:36:34;;;;;;;5.03;3.40;;;;;;;;;;5075466;28;20445;-80
2023/07/12 00:39:01;;;;;;;4.30;3.00;;;;;;;;;;5075209;28;20463;-80
2023/07/12 00:41:46;;;;;;;5.72;3.30;;;;;;;;;;5075342;28;20375;-80
2023/07/12 00:44:15;;;;;;;4.50;3.25;;;;;;;;;;5075087;28;20860;-80
2023/07/12 00:46:42;;;;;;;5.70;3.35;;;;;;;;;;5072194;28;20392;-80
2023/07/12 00:49:12;;;;;;;4.07;3.30;;;;;;;;;;5075507;28;20383;-80
2023/07/12 00:51:40;;;;;;;4.57;3.30;;;;;;;;;;5075110;28;20408;-80
2023/07/12 00:54:14;;;;;;;4.07;3.20;;;;;;;;;;5075092;28;20385;-80
2023/07/12 00:56:40;;;;;;;4.20;3.40;;;;;;;;;;5075214;28;20372;-80
2023/07/12 00:59:09;;;;;;;5.82;3.88;;;;;;;;;;5074925;28;20470;-80
2023/07/12 01:01:36;;;;;;;5.75;3.88;;;;;;;;;;5074836;28;20857;-80
2023/07/12 01:04:03;;;;;;;4.57;3.50;;;;;;;;;;5071910;28;20392;-79
2023/07/12 01:06:31;;;;;;;4.13;3.30;;;;;;;;;;5080183;22;20448;-78
2023/07/12 01:09:00;;;;;;;6.05;3.30;;;;;;;;;;5071740;28;20416;-78
2023/07/12 01:11:26;;;;;;;4.40;3.40;;;;;;;;;;5072052;28;20418;-78
2023/07/12 01:13:52;;;;;;;4.95;3.50;;;;;;;;;;5055859;28;20383;-77
2023/07/12 01:16:20;;;;;;;3.90;3.17;;;;;;;;;;5071199;28;20384;-78
2023/07/12 01:18:46;;;;;;;5.30;3.35;;;;;;;;;;5041001;28;20431;-78
2023/07/12 01:21:24;;;;;;;9.00;3.88;;;;;;;;;;5054827;28;20413;-78
2023/07/12 01:23:50;;;;;;;6.60;3.80;;;;;;;;;;5054467;28;20384;-78
2023/07/12 01:26:24;;;;;;;4.40;3.67;;;;;;;;;;5054525;28;20735;-78
2023/07/12 01:28:53;;;;;;;7.20;3.70;;;;;;;;;;5054006;28;20465;-78
2023/07/12 01:31:19;;;;;;;4.05;3.47;;;;;;;;;;5054534;28;20484;-78
2023/07/12 01:33:45;;;;;;;4.15;3.10;;;;;;;;;;5054356;28;20386;-78
2023/07/12 01:36:11;;;;;;;4.32;3.10;;;;;;;;;;5054375;28;20385;-78
2023/07/12 01:38:37;;;;;;;4.47;3.50;;;;;;;;;;5054077;28;20459;-78
2023/07/12 01:41:03;;;;;;;5.53;3.80;;;;;;;;;;5054084;28;20488;-78
2023/07/12 01:43:29;;;;;;;4.03;3.47;;;;;;;;;;5054229;28;20814;-78
2023/07/12 01:45:55;;;;;;;5.90;3.65;;;;;;;;;;5053958;28;20396;-78
2023/07/12 01:48:21;;;;;;;4.68;3.88;;;;;;;;;;5053942;28;20468;-78
2023/07/12 01:50:47;;;;;;;3.88;3.25;;;;;;;;;;5054034;28;20464;-78
2023/07/12 01:53:13;;;;;;;4.10;3.70;;;;;;;;;;5054180;28;20421;-78
2023/07/12 01:55:42;;;;;;;4.45;3.63;;;;;;;;;;5053784;28;20381;-78
2023/07/12 01:58:08;;;;;;;5.00;3.72;;;;;;;;;;5053912;28;20381;-78
2023/07/12 02:00:34;;;;;;;5.20;3.65;;;;;;;;;;5054068;28;20435;-78
2023/07/12 02:03:00;;;;;;;5.03;3.90;;;;;;;;;;5053681;28;20758;-78
2023/07/12 02:05:26;;;;;;;4.77;3.60;;;;;;;;;;5052048;28;20461;-78
2023/07/12 02:07:56;;;;;;;5.90;3.30;;;;;;;;;;5048287;28;20413;-78
2023/07/12 02:10:22;;;;;;;3.70;3.23;;;;;;;;;;5045181;28;20388;-78
2023/07/12 02:12:48;;;;;;;4.28;3.40;;;;;;;;;;5051756;28;20402;-78
2023/07/12 02:15:14;;;;;;;3.72;3.20;;;;;;;;;;5053550;28;20374;-78
2023/07/12 02:17:40;;;;;;;4.15;3.75;;;;;;;;;;5053488;28;20373;-78
2023/07/12 02:20:08;;;;;;;5.60;3.45;;;;;;;;;;5053509;28;20455;-78
2023/07/12 02:22:35;;;;;;;4.72;3.47;;;;;;;;;;5052941;28;20401;-78
2023/07/12 02:25:01;;;;;;;6.45;4.00;;;;;;;;;;5053348;28;20472;-78
2023/07/12 02:27:27;;;;;;;4.40;3.70;;;;;;;;;;5053373;28;20899;-78
2023/07/12 02:29:53;;;;;;;6.30;3.85;;;;;;;;;;5053581;28;20903;-78
2023/07/12 02:32:23;;;;;;;5.07;3.50;;;;;;;;;;5053665;28;20424;-78
2023/07/12 02:34:49;;;;;;;8.37;4.40;;;;;;;;;;5053076;28;20392;-78
2023/07/12 02:37:16;;;;;;;5.97;4.18;;;;;;;;;;5053140;28;20370;-78
2023/07/12 02:39:43;;;;;;;5.40;4.45;;;;;;;;;;5053243;28;20378;-78
2023/07/12 02:42:09;;;;;;;5.10;3.78;;;;;;;;;;5052211;28;20393;-78
2023/07/12 02:44:35;;;;;;;4.60;4.00;;;;;;;;;;5053173;28;20842;-78
2023/07/12 02:47:01;;;;;;;4.47;3.67;;;;;;;;;;5051711;28;20894;-78
2023/07/12 02:49:27;;;;;;;5.50;3.75;;;;;;;;;;5053057;28;20400;-78
2023/07/12 02:51:53;;;;;;;7.35;3.35;;;;;;;;;;5052714;28;20960;-78
2023/07/12 02:54:19;;;;;;;4.50;3.10;;;;;;;;;;5057243;28;20372;-78
2023/07/12 02:56:45;;;;;;;4.28;3.40;;;;;;;;;;5059753;28;20846;-78
2023/07/12 02:59:11;;;;;;;4.82;3.35;;;;;;;;;;5052785;28;20430;-78
2023/07/12 03:01:37;;;;;;;7.15;3.72;;;;;;;;;;5047454;28;20383;-78
2023/07/12 03:04:03;;;;;;;4.20;3.17;;;;;;;;;;5053712;28;20386;-78
2023/07/12 03:06:29;;;;;;;4.77;3.30;;;;;;;;;;5052756;28;20435;-79
2023/07/12 03:08:55;;;;;;;3.83;3.05;;;;;;;;;;5052916;28;20413;-78
2023/07/12 03:11:21;;;;;;;4.85;3.75;;;;;;;;;;5055201;28;20511;-78
2023/07/12 03:13:49;;;;;;;4.75;3.75;;;;;;;;;;5053011;28;20380;-77
2023/07/12 03:16:15;;;;;;;6.88;3.92;;;;;;;;;;5052404;28;20803;-77
2023/07/12 03:18:41;;;;;;;4.28;3.40;;;;;;;;;;5055297;28;20382;-79
2023/07/12 03:21:07;;;;;;;4.15;3.60;;;;;;;;;;5058970;28;20855;-79
2023/07/12 03:23:34;;;;;;;4.32;3.67;;;;;;;;;;5052444;28;20384;-79
2023/07/12 03:26:00;;;;;;;6.15;3.80;;;;;;;;;;5052487;28;20437;-79
2023/07/12 03:28:26;;;;;;;4.75;3.50;;;;;;;;;;5016942;28;20873;-79
2023/07/12 03:30:59;;;;;;;4.20;3.47;;;;;;;;;;5042373;28;20735;-79
2023/07/12 03:33:25;;;;;;;5.35;3.38;;;;;;;;;;5052589;28;20409;-79
2023/07/12 03:35:51;;;;;;;5.10;3.17;;;;;;;;;;5049804;28;20459;-79
2023/07/12 03:38:17;;;;;;;3.83;2.97;;;;;;;;;;5042257;28;20375;-79
2023/07/12 03:40:47;;;;;;;3.33;2.97;;;;;;;;;;5052064;28;20405;-79
2023/07/12 03:43:13;;;;;;;5.18;3.53;;;;;;;;;;5052133;28;20424;-79
2023/07/12 03:45:39;;;;;;;5.85;3.28;;;;;;;;;;5051140;28;20507;-79
2023/07/12 03:48:05;;;;;;;4.33;2.87;;;;;;;;;;5051713;28;20448;-79
2023/07/12 03:50:31;;;;;;;4.40;3.30;;;;;;;;;;5052164;28;20735;-77
2023/07/12 03:52:57;;;;;;;6.05;3.78;;;;;;;;;;5052195;28;20401;-78
2023/07/12 03:55:23;;;;;;;5.10;3.85;;;;;;;;;;5052403;28;20377;-79
2023/07/12 03:57:49;;;;;;;5.03;3.95;;;;;;;;;;5052006;28;20866;-79
2023/07/12 04:00:15;;;;;;;6.60;4.30;;;;;;;;;;5052277;28;20405;-78
2023/07/12 04:02:41;;;;;;;5.20;3.40;;;;;;;;;;5034230;28;20393;-78
2023/07/12 04:05:07;;;;;;;4.97;3.70;;;;;;;;;;5052261;28;20953;-79
2023/07/12 04:07:33;;;;;;;9.30;4.70;;;;;;;;;;5052267;28;20417;-78
2023/07/12 04:09:59;;;;;;;5.50;4.18;;;;;;;;;;5052234;28;20427;-78
2023/07/12 04:12:25;;;;;;;6.85;4.32;;;;;;;;;;5033762;28;20443;-79
2023/07/12 04:14:51;;;;;;;5.13;3.50;;;;;;;;;;5034288;28;20385;-76
2023/07/12 04:17:17;;;;;;;5.72;3.70;;;;;;;;;;5051756;28;20854;-77
2023/07/12 04:19:43;;;;;;;5.68;3.75;;;;;;;;;;5051511;28;20392;-76
2023/07/12 04:22:09;;;;;;;5.90;3.90;;;;;;;;;;5051856;28;20400;-77
2023/07/12 04:24:35;;;;;;;8.85;4.47;;;;;;;;;;5051640;28;20434;-77
2023/07/12 04:27:01;;;;;;;9.40;4.88;;;;;;;;;;5051558;28;20747;-79
2023/07/12 04:29:27;;;;;;;11.65;5.38;;;;;;;;;;5051902;28;20413;-79
2023/07/12 04:31:53;;;;;;;9.60;4.35;;;;;;;;;;5051422;28;20988;-79
2023/07/12 04:34:19;;;;;;;6.43;3.57;;;;;;;;;;5051609;28;20454;-79
2023/07/12 04:36:45;;;;;;;6.77;3.67;;;;;;;;;;5051267;28;20507;-79
2023/07/12 04:39:11;;;;;;;4.77;3.30;;;;;;;;;;5050660;28;20382;-79
2023/07/12 04:41:37;;;;;;;7.93;3.67;;;;;;;;;;5049051;28;20932;-81
2023/07/12 04:44:03;;;;;;;9.18;3.83;;;;;;;;;;5051009;28;20416;-80
2023/07/12 04:46:30;;;;;;;7.00;3.33;;;;;;;;;;5051217;28;20382;-79
2023/07/12 04:48:56;;;;;;;5.88;3.50;;;;;;;;;;5051265;28;20385;-79
2023/07/12 04:51:22;;;;;;;6.70;3.33;;;;;;;;;;5051207;28;20389;-79
2023/07/12 04:53:48;;;;;;;3.93;3.30;;;;;;;;;;5051287;28;20381;-79
2023/07/12 04:56:14;;;;;;;5.70;3.13;;;;;;;;;;5051048;28;20378;-79
2023/07/12 04:58:40;;;;;;;6.28;3.05;;;;;;;;;;5051441;28;20851;-78
2023/07/12 05:01:07;;;;;;;7.73;3.60;;;;;;;;;;5030648;28;20498;-79
2023/07/12 05:03:33;;;;;;;6.67;3.30;;;;;;;;;;5052962;28;20385;-79
2023/07/12 05:05:59;;;;;;;5.68;2.90;;;;;;;;;;5054810;28;20373;-79
2023/07/12 05:08:25;;;;;;;7.30;3.80;;;;;;;;;;5036635;28;20405;-79
2023/07/12 05:10:51;;;;;;;5.57;3.30;;;;;;;;;;5057451;28;20385;-79
2023/07/12 05:13:17;;;;;;;6.63;4.35;;;;;;;;;;5054726;28;20409;-78
2023/07/12 05:15:50;;;;;;;8.00;4.13;;;;;;;;;;5036862;28;20534;-79
2023/07/12 05:18:16;;;;;;;6.72;4.15;;;;;;;;;;5054647;28;20416;-78
2023/07/12 05:20:42;;;;;;;9.23;4.68;;;;;;;;;;5054779;28;20382;-78
2023/07/12 05:23:08;;;;;;;6.72;4.60;;;;;;;;;;5054570;28;20377;-78
2023/07/12 05:25:34;;;;;;;7.13;4.28;;;;;;;;;;5054487;28;20905;-80
2023/07/12 05:28:02;;;;;;;5.10;4.10;;;;;;;;;;5054420;28;20732;-80
2023/07/12 05:30:28;;;;;;;5.25;3.63;;;;;;;;;;5062076;28;20435;-80
2023/07/12 05:32:54;;;;;;;6.72;4.07;;;;;;;;;;5054576;28;20809;-80
2023/07/12 05:35:20;;;;;;;5.43;3.40;;;;;;;;;;5054260;28;20381;-80
2023/07/12 05:37:46;;;;;;;6.90;3.60;;;;;;;;;;5054286;28;20374;-80
2023/07/12 05:40:13;;;;;;;6.28;3.85;;;;;;;;;;5054514;28;20381;-80
2023/07/12 05:42:41;;;;;;;4.47;3.63;;;;;;;;;;5054426;28;20411;-80
2023/07/12 05:45:08;;;;;;;5.17;3.40;;;;;;;;;;5022397;28;20437;-80
2023/07/12 05:47:34;;;;;;;9.52;4.20;;;;;;;;;;5054140;28;20389;-80
2023/07/12 05:50:00;;;;;;;6.97;4.00;;;;;;;;;;5054208;28;20464;-80
2023/07/12 05:52:27;;;;;;;6.20;4.05;;;;;;;;;;5053989;28;20405;-80
2023/07/12 05:54:54;;;;;;;5.53;3.60;;;;;;;;;;5053953;28;20381;-80
2023/07/12 05:57:21;;;;;;;6.18;3.60;;;;;;;;;;5054234;28;20734;-80
2023/07/12 05:59:47;;;;;;;6.88;3.47;;;;;;;;;;5054221;28;20373;-80
2023/07/12 06:02:14;;;;;;;6.32;4.10;;;;;;;;;;5053854;28;20785;-80
2023/07/12 06:04:40;;;;;;;6.10;3.33;;;;;;;;;;5054054;28;20385;-80
2023/07/12 06:07:06;;;;;;;4.83;3.30;;;;;;;;;;5053875;28;20731;-80
2023/07/12 06:09:32;;;;;;;6.53;4.00;;;;;;;;;;5053788;28;20381;-80
2023/07/12 06:11:58;;;;;;;5.03;3.33;;;;;;;;;;5053856;28;20411;-80
2023/07/12 06:14:24;;;;;;;4.55;2.88;;;;;;;;;;5053630;28;20381;-80
2023/07/12 06:16:50;;;;;;;6.25;3.20;;;;;;;;;;5053767;28;20731;-80
2023/07/12 06:19:16;;;;;;;6.18;3.83;;;;;;;;;;5053793;28;20484;-80
2023/07/12 06:21:42;;;;;;;6.37;3.77;;;;;;;;;;5053529;28;20421;-80
2023/07/12 06:24:08;;;;;;;4.90;3.33;;;;;;;;;;5053638;28;20385;-80
2023/07/12 06:26:34;;;;;;;4.65;3.30;;;;;;;;;;5053328;28;20386;-80
2023/07/12 06:29:01;;;;;;;5.75;4.28;;;;;;;;;;5053495;28;20472;-80
2023/07/12 06:31:27;;;;;;;5.80;3.50;;;;;;;;;;5053567;28;20723;-80
2023/07/12 06:33:53;;;;;;;6.90;3.70;;;;;;;;;;5053597;28;20419;-80
2023/07/12 06:36:20;;;;;;;9.50;3.78;;;;;;;;;;5053430;28;20851;-80
2023/07/12 06:38:46;;;;;;;4.78;3.58;;;;;;;;;;5053468;28;20377;-80
2023/07/12 06:41:12;;;;;;;5.22;4.00;;;;;;;;;;5053109;28;20464;-80
2023/07/12 06:43:38;;;;;;;7.35;3.80;;;;;;;;;;5053218;28;20378;-80
2023/07/12 06:46:04;;;;;;;8.05;4.10;;;;;;;;;;5052079;28;20381;-80
2023/07/12 06:48:30;;;;;;;6.28;3.92;;;;;;;;;;5021102;28;20395;-80
2023/07/12 06:50:56;;;;;;;6.00;3.83;;;;;;;;;;5052956;28;20401;-80
2023/07/12 06:53:22;;;;;;;6.10;3.80;;;;;;;;;;5053138;28;20409;-80
2023/07/12 06:55:48;;;;;;;6.60;4.03;;;;;;;;;;5052715;28;20377;-80
2023/07/12 06:58:14;;;;;;;6.88;4.05;;;;;;;;;;5052723;28;20377;-80
2023/07/12 07:00:41;;;;;;;8.20;4.55;;;;;;;;;;5053742;28;20863;-80
2023/07/12 07:03:09;;;;;;;6.20;3.88;;;;;;;;;;5054244;28;20384;-80
2023/07/12 07:05:36;;;;;;;5.70;3.88;;;;;;;;;;5052390;28;20431;-80
2023/07/12 07:08:03;;;;;;;5.43;4.10;;;;;;;;;;5052352;28;20409;-80
2023/07/12 07:10:29;;;;;;;5.55;3.80;;;;;;;;;;5045847;28;20413;-80
2023/07/12 07:12:55;;;;;;;8.25;4.70;;;;;;;;;;5052385;28;20423;-80
2023/07/12 07:15:21;;;;;;;8.70;4.90;;;;;;;;;;5052775;28;20851;-80
2023/07/12 07:17:47;;;;;;;6.22;4.50;;;;;;;;;;5052597;28;20439;-80
2023/07/12 07:20:13;;;;;;;10.43;5.53;;;;;;;;;;5052462;28;20385;-80
2023/07/12 07:22:39;;;;;;;7.93;4.60;;;;;;;;;;5053141;28;20436;-80
2023/07/12 07:25:05;;;;;;;7.30;5.17;;;;;;;;;;5052190;28;20854;-81
2023/07/12 07:27:31;;;;;;;7.60;4.22;;;;;;;;;;5042072;28;20393;-81
2023/07/12 07:29:57;;;;;;;6.43;3.83;;;;;;;;;;5052129;28;20382;-81
2023/07/12 07:32:23;;;;;;;8.98;5.10;;;;;;;;;;5051337;28;20474;-81
2023/07/12 07:34:49;;;;;;;6.13;4.57;;;;;;;;;;5052173;28;20401;-81
2023/07/12 07:37:15;;;;;;;8.88;4.93;;;;;;;;;;5051787;28;20386;-82
2023/07/12 07:39:41;;;;;;;7.80;4.40;;;;;;;;;;5052832;28;20388;-82
2023/07/12 07:42:07;;;;;;;7.78;4.95;;;;;;;;;;5052049;28;20385;-82
2023/07/12 07:44:34;;;;;;;8.73;5.35;;;;;;;;;;5052288;28;20389;-82
2023/07/12 07:47:00;;;;;;;7.57;4.95;;;;;;;;;;5051699;28;20382;-83
2023/07/12 07:49:26;;;;;;;7.50;4.40;;;;;;;;;;5052069;28;20458;-83
2023/07/12 07:51:54;;;;;;;7.35;4.45;;;;;;;;;;5051823;28;20413;-83
2023/07/12 07:54:20;;;;;;;6.32;4.25;;;;;;;;;;5052056;28;20460;-83
2023/07/12 07:56:46;;;;;;;7.35;4.68;;;;;;;;;;5051752;28;20427;-83
2023/07/12 07:59:12;;;;;;;8.38;4.40;;;;;;;;;;5052102;28;20413;-83
2023/07/12 08:01:38;;;;;;;8.73;4.63;;;;;;;;;;5051807;28;20430;-84
2023/07/12 08:04:04;;;;;;;8.48;4.28;;;;;;;;;;5051797;28;20424;-84
2023/07/12 08:06:30;;;;;;;10.35;5.07;;;;;;;;;;5051624;28;20416;-84
2023/07/12 08:08:56;;;;;;;7.82;4.03;;;;;;;;;;5051633;28;20915;-84
2023/07/12 08:11:22;;;;;;;9.05;4.40;;;;;;;;;;5051683;28;20461;-84
2023/07/12 08:13:48;;;;;;;8.88;4.82;;;;;;;;;;5051709;28;20381;-83
2023/07/12 08:16:14;;;;;;;7.15;4.97;;;;;;;;;;5051583;28;20384;-84
2023/07/12 08:18:40;;;;;;;8.57;5.00;;;;;;;;;;5051471;28;20374;-84
2023/07/12 08:21:06;;;;;;;7.60;4.60;;;;;;;;;;5050735;28;20720;-83
2023/07/12 08:23:32;;;;;;;6.93;4.50;;;;;;;;;;5051597;28;20468;-84
2023/07/12 08:25:58;;;;;;;6.88;4.78;;;;;;;;;;5051693;28;20389;-84
2023/07/12 08:28:25;;;;;;;8.00;4.60;;;;;;;;;;5051516;28;20383;-84
2023/07/12 08:30:51;;;;;;;8.13;4.75;;;;;;;;;;5051633;28;20432;-85
2023/07/12 08:33:18;;;;;;;7.93;4.40;;;;;;;;;;5051448;28;20404;-84
2023/07/12 08:35:45;;;;;;;8.13;4.78;;;;;;;;;;5051573;28;20434;-84
2023/07/12 08:38:11;;;;;;;9.55;4.55;;;;;;;;;;5051413;28;20743;-84
2023/07/12 08:40:43;;;;;;;7.45;4.78;;;;;;;;;;5054317;28;20502;-82
2023/07/12 08:43:15;;;;;;;10.10;5.30;;;;;;;;;;5053857;28;20480;-84
2023/07/12 08:45:41;;;;;;;7.35;4.63;;;;;;;;;;5054970;28;20382;-86
2023/07/12 08:48:12;;;;;;;8.30;4.50;;;;;;;;;;5055145;28;20728;-86
2023/07/12 08:50:40;;;;;;;8.98;4.95;;;;;;;;;;5054969;28;20389;-86
2023/07/12 08:53:11;;;;;;;9.80;5.20;;;;;;;;;;5048123;28;20444;-87
2023/07/12 08:55:38;;;;;;;7.18;4.68;;;;;;;;;;5054992;28;20390;-86
2023/07/12 08:58:18;;;;;;;10.90;4.90;;;;;;;;;;5056648;28;20774;-86
2023/07/12 09:00:44;;;;;;;7.37;4.77;;;;;;;;;;5055042;28;20391;-86
2023/07/12 09:03:10;;;;;;;7.50;4.97;;;;;;;;;;5036558;28;20427;-85
2023/07/12 09:05:36;;;;;;;8.00;5.10;;;;;;;;;;5054815;28;20381;-85
2023/07/12 09:08:08;;;;;;;7.68;4.63;;;;;;;;;;5054920;28;20891;-85
2023/07/12 09:10:49;;;;;;;7.75;4.82;;;;;;;;;;5053849;28;20890;-86
2023/07/12 09:13:16;;;;;;;7.60;4.65;;;;;;;;;;5036861;28;20405;-84
2023/07/12 09:15:48;;;;;;;9.25;5.05;;;;;;;;;;5057247;28;20382;-84
2023/07/12 09:18:29;;;;;;;6.80;4.87;;;;;;;;;;5054786;28;20460;-84
2023/07/12 09:20:56;;;;;;;8.90;4.95;;;;;;;;;;5054812;28;20381;-84
2023/07/12 09:23:22;;;;;;;6.88;4.68;;;;;;;;;;5054459;28;20385;-82
2023/07/12 09:25:54;;;;;;;9.40;4.78;;;;;;;;;;5054632;28;20409;-82
2023/07/12 09:28:20;;;;;;;7.63;4.45;;;;;;;;;;5054389;28;20724;-82
2023/07/12 09:30:46;;;;;;;5.97;4.75;;;;;;;;;;5054591;28;20381;-85
2023/07/12 09:33:23;;;;;;;6.25;4.72;;;;;;;;;;5054269;28;20446;-84
2023/07/12 09:35:49;;;;;;;8.82;4.72;;;;;;;;;;5054352;28;20378;-85
2023/07/12 09:38:25;;;;;;;8.02;5.00;;;;;;;;;;5064329;28;20865;-84
2023/07/12 09:40:52;;;;;;;5.70;4.30;;;;;;;;;;5042399;28;20666;-86
2023/07/12 09:43:20;;;;;;;6.35;4.93;;;;;;;;;;5054273;28;20426;-85
2023/07/12 09:45:52;;;;;;;7.95;5.10;;;;;;;;;;5055092;28;20386;-85
2023/07/12 09:48:26;;;;;;;6.68;4.78;;;;;;;;;;5054193;28;20378;-86
2023/07/12 09:51:01;;;;;;;10.50;4.90;;;;;;;;;;5053550;28;20377;-85
2023/07/12 09:53:36;;;;;;;7.40;4.65;;;;;;;;;;5053679;28;20894;-86
2023/07/12 09:56:20;;;;;;;9.30;4.90;;;;;;;;;;5053597;28;20393;-85
2023/07/12 09:59:01;;;;;;;5.88;4.60;;;;;;;;;;5049198;28;20381;-86
2023/07/12 10:01:46;;;;;;;7.20;4.43;;;;;;;;;;5049557;28;20415;-86
2023/07/12 10:04:27;;;;;;;6.95;4.70;;;;;;;;;;5052202;28;20416;-86
2023/07/12 10:06:54;;;;;;;8.10;4.45;;;;;;;;;;5053733;28;20882;-85
2023/07/12 10:09:26;;;;;;;5.95;4.50;;;;;;;;;;5053368;28;20739;-84
2023/07/12 10:11:54;;;;;;;7.20;4.87;;;;;;;;;;5053930;28;20484;-84
2023/07/12 10:14:23;;;;;;;6.00;4.55;;;;;;;;;;5053468;28;20384;-84
2023/07/12 10:16:50;;;;;;;8.45;4.90;;;;;;;;;;5041822;28;20888;-84
2023/07/12 10:19:21;;;;;;;6.78;4.72;;;;;;;;;;5073674;28;20455;-84
2023/07/12 10:21:49;;;;;;;7.35;5.10;;;;;;;;;;5073481;28;20388;-85
2023/07/12 10:24:17;;;;;;;8.55;4.95;;;;;;;;;;5073363;28;20857;-84
2023/07/12 10:26:46;;;;;;;9.00;4.43;;;;;;;;;;5073161;28;20387;-86
2023/07/12 10:29:24;;;;;;;5.57;4.20;;;;;;;;;;5072869;28;20467;-84
2023/07/12 10:31:55;;;;;;;5.90;4.47;;;;;;;;;;5073080;28;20480;-84
2023/07/12 10:34:43;;;;;;;5.32;4.35;;;;;;;;;;5073288;28;20411;-85
2023/07/12 10:37:29;;;;;;;7.28;4.50;;;;;;;;;;5072979;28;20372;-87
2023/07/12 10:39:55;;;;;;;5.82;4.60;;;;;;;;;;5053290;28;20868;-85
2023/07/12 10:42:29;;;;;;;7.60;4.40;;;;;;;;;;5072651;28;20387;-85
2023/07/12 10:44:56;;;;;;;6.82;4.32;;;;;;;;;;5067339;28;20810;-85
2023/07/12 10:47:24;;;;;;;8.07;4.50;;;;;;;;;;5072703;28;20379;-85
2023/07/12 10:49:57;;;;;;;8.18;4.43;;;;;;;;;;5073458;28;20380;-84
2023/07/12 10:52:28;;;;;;;5.50;4.20;;;;;;;;;;5072756;28;20414;-84
2023/07/12 10:55:04;;;;;;;5.23;4.07;;;;;;;;;;5074645;28;20379;-84
2023/07/12 10:57:46;;;;;;;5.47;4.13;;;;;;;;;;5072646;28;20454;-84
2023/07/12 11:00:18;;;;;;;4.50;3.80;;;;;;;;;;5054826;28;20888;-84
2023/07/12 11:02:46;;;;;;;5.70;4.28;;;;;;;;;;5071395;28;20877;-84
2023/07/12 11:05:31;;;;;;;6.95;4.18;;;;;;;;;;5072715;28;20737;-84
2023/07/12 11:07:57;;;;;;;6.63;4.30;;;;;;;;;;5058054;28;20409;-83
2023/07/12 11:10:25;;;;;;;7.05;4.80;;;;;;;;;;5053025;28;20910;-82
2023/07/12 11:12:53;;;;;;;8.13;4.97;;;;;;;;;;5052353;28;20401;-84
2023/07/12 11:15:24;;;;;;;5.07;4.57;;;;;;;;;;5051902;28;20428;-83
2023/07/12 11:18:09;;;;;;;6.37;5.27;;;;;;;;;;5051674;28;20386;-84
2023/07/12 11:20:55;;;;;;;5.63;4.68;;;;;;;;;;5051885;28;20408;-84
2023/07/12 11:23:26;;;;;;;9.18;4.50;;;;;;;;;;5051528;28;20377;-84
2023/07/12 11:26:02;;;;;;;6.35;4.47;;;;;;;;;;5051734;28;20875;-84
2023/07/12 11:28:43;;;;;;;6.00;4.45;;;;;;;;;;5051828;28;20873;-84
2023/07/12 11:31:15;;;;;;;6.90;4.38;;;;;;;;;;5051268;28;20480;-84
2023/07/12 11:33:44;;;;;;;5.28;4.13;;;;;;;;;;5049621;28;20412;-84
2023/07/12 11:36:18;;;;;;;6.43;4.30;;;;;;;;;;5052158;28;20380;-84
2023/07/12 11:38:45;;;;;;;16.60;9.30;;;;;;;;;;5052123;28;20377;-84
2023/07/12 11:41:16;;;;;;;17.20;8.00;;;;;;;;;;5052150;28;20385;-84
2023/07/12 11:43:42;;;;;;;5.50;4.97;;;;;;;;;;5052059;28;20390;-84
2023/07/12 11:46:13;;;;;;;8.57;5.38;;;;;;;;;;5053277;28;20447;-84
2023/07/12 11:48:42;;;;;;;12.63;5.88;;;;;;;;;;5051927;28;20781;-85
2023/07/12 11:51:11;;;;;;;8.70;5.37;;;;;;;;;;5051956;28;20385;-84
2023/07/12 11:53:37;;;;;;;16.73;8.85;;;;;;;;;;5050573;28;20842;-84
2023/07/12 11:56:03;;;;;;;15.35;9.45;;;;;;;;;;5052143;28;20416;-84
2023/07/12 11:58:30;;;;;;;6.07;4.97;;;;;;;;;;5051893;28;20373;-84
2023/07/12 12:00:58;;;;;;;6.33;4.37;;;;;;;;;;5051910;28;20413;-85
2023/07/12 12:03:24;;;;;;;9.90;5.00;;;;;;;;;;5049868;28;20439;-84
2023/07/12 12:05:51;;;;;;;8.52;5.35;;;;;;;;;;5051861;28;20389;-85
2023/07/12 12:08:19;;;;;;;8.38;4.97;;;;;;;;;;5051534;28;20413;-84
2023/07/12 12:10:46;;;;;;;8.95;4.97;;;;;;;;;;5051135;28;20389;-84
2023/07/12 12:13:18;;;;;;;6.90;4.75;;;;;;;;;;5051860;28;20432;-84
2023/07/12 12:15:47;;;;;;;9.90;4.90;;;;;;;;;;5052706;28;20776;-84
2023/07/12 12:18:17;;;;;;;7.25;4.80;;;;;;;;;;5055336;28;20383;-84
2023/07/12 12:20:57;;;;;;;7.40;4.72;;;;;;;;;;5055891;28;20374;-85
2023/07/12 12:23:32;;;;;;;8.55;4.90;;;;;;;;;;5054426;28;20469;-84
2023/07/12 12:26:00;;;;;;;6.85;5.00;;;;;;;;;;5055896;28;20427;-84
2023/07/12 12:28:27;;;;;;;7.40;4.88;;;;;;;;;;5055495;28;20381;-84
2023/07/12 12:30:58;;;;;;;6.85;4.80;;;;;;;;;;5044769;28;20733;-84
2023/07/12 12:33:25;;;;;;;7.82;4.82;;;;;;;;;;5052128;28;20417;-84
2023/07/12 12:35:58;;;;;;;10.27;5.40;;;;;;;;;;5055596;28;20377;-85
2023/07/12 12:38:27;;;;;;;10.63;6.28;;;;;;;;;;5055436;28;20369;-84
2023/07/12 12:40:56;;;;;;;9.40;6.77;;;;;;;;;;5055779;28;20910;-84
2023/07/12 12:43:41;;;;;;;14.95;8.98;;;;;;;;;;5055252;28;20384;-84
2023/07/12 12:46:33;;;;;;;16.27;10.23;;;;;;;;;;5057702;28;20386;-84
2023/07/12 12:49:03;;;;;;;13.60;8.10;;;;;;;;;;5052507;28;20398;-85
2023/07/12 12:51:31;;;;;;;11.15;6.15;;;;;;;;;;5048892;28;20416;-84
2023/07/12 12:54:14;;;;;;;8.07;5.40;;;;;;;;;;5053130;28;20382;-84
2023/07/12 12:56:53;;;;;;;6.68;5.07;;;;;;;;;;5056314;28;20377;-84
2023/07/12 12:59:19;;;;;;;7.97;4.63;;;;;;;;;;5041246;28;20365;-84
2023/07/12 13:01:46;;;;;;;8.77;5.40;;;;;;;;;;5054954;28;20377;-84
2023/07/12 13:04:12;;;;;;;7.40;4.80;;;;;;;;;;5056946;28;20396;-85
2023/07/12 13:06:39;;;;;;;5.70;4.95;;;;;;;;;;5064329;28;20402;-84
2023/07/12 13:09:11;;;;;;;5.90;4.75;;;;;;;;;;5053077;28;20516;-84
2023/07/12 13:11:37;;;;;;;6.53;4.35;;;;;;;;;;5054307;28;20377;-84
2023/07/12 13:14:03;;;;;;;4.57;3.88;;;;;;;;;;5054632;28;20488;-85
2023/07/12 13:16:29;;;;;;;5.97;3.95;;;;;;;;;;5050010;28;20375;-84
2023/07/12 13:18:55;;;;;;;5.47;3.83;;;;;;;;;;5033558;28;20395;-84
2023/07/12 13:21:23;;;;;;;4.20;3.70;;;;;;;;;;5050199;28;20431;-84
2023/07/12 13:23:50;;;;;;;5.43;3.47;;;;;;;;;;5054655;28;20381;-84
2023/07/12 13:26:17;;;;;;;5.50;3.45;;;;;;;;;;5053714;28;20381;-84
2023/07/12 13:28:43;;;;;;;4.88;3.33;;;;;;;;;;5041081;28;20393;-84
2023/07/12 13:31:10;;;;;;;4.20;3.17;;;;;;;;;;5054594;28;20877;-84
2023/07/12 13:33:37;;;;;;;3.93;2.97;;;;;;;;;;5049035;28;20411;-84
2023/07/12 13:36:03;;;;;;;5.65;3.50;;;;;;;;;;5045117;28;20381;-85
2023/07/12 13:38:29;;;;;;;6.97;3.03;;;;;;;;;;5054286;28;20409;-84
2023/07/12 13:40:55;;;;;;;6.20;3.08;;;;;;;;;;5053944;28;20382;-84
2023/07/12 13:43:21;;;;;;;7.35;3.63;;;;;;;;;;5054107;28;20855;-84
2023/07/12 13:45:47;;;;;;;6.30;4.10;;;;;;;;;;5054095;28;20409;-84
2023/07/12 13:48:20;;;;;;;5.82;3.88;;;;;;;;;;5052984;28;20377;-84
2023/07/12 13:50:46;;;;;;;5.32;3.83;;;;;;;;;;5050407;28;20395;-84
2023/07/12 13:53:12;;;;;;;6.90;4.40;;;;;;;;;;5053491;28;20582;-85
2023/07/12 13:55:38;;;;;;;5.50;4.13;;;;;;;;;;5067356;28;20385;-84
2023/07/12 13:58:04;;;;;;;5.70;3.80;;;;;;;;;;5053807;28;20877;-85
2023/07/12 14:00:30;;;;;;;4.78;4.03;;;;;;;;;;5054024;28;20458;-84
2023/07/12 14:02:59;;;;;;;5.15;4.65;;;;;;;;;;5053601;28;20440;-84
2023/07/12 14:05:25;;;;;;;6.30;3.95;;;;;;;;;;5053432;28;20408;-84
2023/07/12 14:07:51;;;;;;;5.93;4.10;;;;;;;;;;5051555;28;20833;-84
2023/07/12 14:10:20;;;;;;;4.53;3.50;;;;;;;;;;5053791;28;20381;-85
2023/07/12 14:12:47;;;;;;;4.10;3.25;;;;;;;;;;5053631;28;20412;-84
2023/07/12 14:15:21;;;;;;;5.18;3.28;;;;;;;;;;5053391;28;20378;-83
2023/07/12 14:17:47;;;;;;;3.95;3.47;;;;;;;;;;5053523;28;20378;-83
2023/07/12 14:20:13;;;;;;;5.90;3.67;;;;;;;;;;5052927;28;20477;-84
2023/07/12 14:22:39;;;;;;;5.32;3.40;;;;;;;;;;5052963;28;20883;-84
2023/07/12 14:25:06;;;;;;;4.57;3.20;;;;;;;;;;5053624;28;20390;-84
2023/07/12 14:27:34;;;;;;;3.97;3.10;;;;;;;;;;5053530;28;20743;-84
2023/07/12 14:30:05;;;;;;;4.30;3.10;;;;;;;;;;5050244;28;20381;-85
2023/07/12 14:32:33;;;;;;;4.88;3.22;;;;;;;;;;5042922;28;20410;-85
2023/07/12 14:35:02;;;;;;;4.53;2.90;;;;;;;;;;5053343;28;20377;-85
2023/07/12 14:37:28;;;;;;;3.97;2.75;;;;;;;;;;5053116;28;20373;-85
2023/07/12 14:39:54;;;;;;;4.45;2.60;;;;;;;;;;5060067;28;20398;-84
2023/07/12 14:42:20;;;;;;;3.20;2.72;;;;;;;;;;5053164;28;20855;-85
2023/07/12 14:44:46;;;;;;;3.80;2.40;;;;;;;;;;5053211;28;20400;-84
2023/07/12 14:47:13;;;;;;;3.13;2.60;;;;;;;;;;5052876;28;20415;-85